This is the latest recevied weather packets stored in our database for station/object YN9ZMM-13. If no packets are shown the sender has not sent any weather packets the latest 10 day(s).
| Time | Temp. | Humidity | Pressure | Rain* | Wind** | Luminosity | Snow |
|---|---|---|---|---|---|---|---|
| 1778207130 | 20.56° C | 63% | 1012 hPa | 0 mm | - | - | - |
| 1778206529 | 20.56° C | 63% | 1012 hPa | 0 mm | - | - | - |
| 1778205929 | 23.89° C | 66% | 1012 hPa | 0 mm | - | - | - |
| 1778205329 | 23.33° C | 66% | 1012 hPa | 0 mm | - | - | - |
| 1778204728 | 22.78° C | 66% | 1012 hPa | 0 mm | - | - | - |
| 1778204128 | 22.22° C | 66% | 1012 hPa | 0 mm | - | - | - |
| 1778203528 | 25° C | 62% | 1011 hPa | 0 mm | - | - | - |
| 1778202927 | 24.44° C | 62% | 1011 hPa | 0 mm | - | - | - |
| 1778202327 | 23.89° C | 62% | 1011 hPa | 0 mm | - | - | - |
| 1778201727 | 25° C | 61% | 1011 hPa | 0 mm | - | - | - |
| 1778201126 | 24.44° C | 61% | 1011 hPa | 0 mm | - | - | - |
| 1778200526 | 27.78° C | 53% | 1011 hPa | 0 mm | - | - | - |
| 1778199926 | 27.22° C | 53% | 1010 hPa | 0 mm | - | - | - |
| 1778199325 | 26.67° C | 53% | 1010 hPa | 0 mm | - | - | - |
| 1778198725 | 27.22° C | 55% | 1010 hPa | 0 mm | - | - | - |
| 1778198125 | 26.67° C | 55% | 1010 hPa | 0 mm | - | - | - |
| 1778197525 | 27.78° C | 56% | 1010 hPa | 0 mm | - | - | - |
| 1778196925 | 27.78° C | 56% | 1010 hPa | 0 mm | - | - | - |
| 1778196324 | 31.11° C | 39% | 1009 hPa | 0 mm | - | - | - |
| 1778195723 | 30.56° C | 39% | 1009 hPa | 0 mm | - | - | - |
| 1778195123 | 30° C | 39% | 1009 hPa | 0 mm | - | - | - |
| 1778194523 | 31.11° C | 39% | 1009 hPa | 0 mm | - | - | - |
| 1778193922 | 30.56° C | 39% | 1009 hPa | 0 mm | - | - | - |
| 1778193322 | 33.33° C | 34% | 1009 hPa | 0 mm | - | - | - |
| 1778192722 | 32.78° C | 34% | 1008 hPa | 0 mm | - | - | - |
* Rain latest hour (hover to see other rain measurements)
** Current wind speed in m/s (hover to see current wind gust speed)